createdAt,value
2019-04-07T00:01:04.503Z,95.00
2019-04-07T00:03:34.570Z,95.10
2019-04-07T00:06:04.250Z,95.10
2019-04-07T00:08:33.947Z,95.20
2019-04-07T00:11:04.527Z,95.20
2019-04-07T00:13:34.170Z,95.30
2019-04-07T00:16:03.679Z,95.40
2019-04-07T00:18:33.230Z,95.40
2019-04-07T00:21:02.752Z,95.60
2019-04-07T00:23:32.282Z,95.90
2019-04-07T00:26:02.242Z,95.80
2019-04-07T00:28:32.451Z,95.80
2019-04-07T00:31:02.533Z,95.70
2019-04-07T00:33:32.269Z,95.90
2019-04-07T00:36:01.779Z,95.90
2019-04-07T00:38:31.644Z,95.90
2019-04-07T00:41:01.435Z,95.90
2019-04-07T00:43:31.139Z,96.00
2019-04-07T00:46:01.370Z,96.10
2019-04-07T00:48:31.117Z,96.10
2019-04-07T00:51:01.320Z,96.10
2019-04-07T00:53:31.130Z,96.20
2019-04-07T00:56:00.646Z,96.20
2019-04-07T00:58:30.224Z,96.40
2019-04-07T01:00:59.853Z,96.30
2019-04-07T01:03:30.197Z,96.30
2019-04-07T01:05:59.952Z,96.30
2019-04-07T01:08:29.495Z,96.30
2019-04-07T01:10:59.014Z,96.30
2019-04-07T01:13:28.538Z,96.20
2019-04-07T01:15:58.700Z,96.40
2019-04-07T01:18:31.754Z,96.30
2019-04-07T01:21:01.519Z,96.30
2019-04-07T01:23:32.458Z,96.60
2019-04-07T01:26:03.148Z,96.70
2019-04-07T01:28:32.915Z,96.60
2019-04-07T01:31:02.450Z,96.80
2019-04-07T01:33:32.350Z,96.70
2019-04-07T01:36:02.096Z,96.70
2019-04-07T01:38:32.124Z,96.70
2019-04-07T01:41:23.599Z,96.90
2019-04-07T01:44:01.807Z,96.90
2019-04-07T01:46:41.718Z,97.00
2019-04-07T01:49:33.854Z,97.00
2019-04-07T01:52:21.190Z,97.20
2019-04-07T01:55:08.311Z,97.10
2019-04-07T01:57:55.631Z,97.10
2019-04-07T02:00:43.013Z,97.20
2019-04-07T02:03:35.689Z,97.40
2019-04-07T02:06:13.517Z,97.40
2019-04-07T02:09:00.946Z,97.40
2019-04-07T02:12:04.796Z,97.40
2019-04-07T02:14:47.198Z,97.50
2019-04-07T02:17:28.588Z,97.60
2019-04-07T02:20:32.218Z,97.60
2019-04-07T02:23:16.328Z,97.80
2019-04-07T02:26:00.997Z,97.80
2019-04-07T02:28:40.834Z,97.80
2019-04-07T02:31:35.951Z,97.80
2019-04-07T02:34:27.823Z,97.90
2019-04-07T02:37:14.371Z,97.90
2019-04-07T02:40:11.873Z,98.00
2019-04-07T02:43:01.868Z,97.90
2019-04-07T02:45:43.104Z,98.10
2019-04-07T02:48:28.455Z,98.40
2019-04-07T02:51:17.951Z,98.10
2019-04-07T02:54:04.526Z,98.10
2019-04-07T02:56:58.975Z,98.20
2019-04-07T02:59:46.478Z,98.10
2019-04-07T03:02:47.693Z,98.30
2019-04-07T03:05:30.120Z,98.20
2019-04-07T03:08:18.654Z,98.50
2019-04-07T03:11:10.129Z,98.20
2019-04-07T03:13:58.521Z,98.10
2019-04-07T03:16:33.380Z,98.30
2019-04-07T03:19:25.433Z,98.30
2019-04-07T03:22:20.682Z,98.30
2019-04-07T03:25:13.347Z,98.40
2019-04-07T03:28:01.808Z,98.50
2019-04-07T03:30:54.794Z,98.50
2019-04-07T03:34:04.074Z,98.70
2019-04-07T03:37:15.388Z,98.90
2019-04-07T03:39:33.355Z,99.00
2019-04-07T03:42:10.599Z,99.30
2019-04-07T03:44:46.898Z,99.70
2019-04-07T03:47:35.545Z,99.40
2019-04-07T03:50:31.598Z,99.80
2019-04-07T03:53:28.939Z,99.80
2019-04-07T03:56:06.134Z,99.90
2019-04-07T03:59:03.620Z,99.90
2019-04-07T04:01:52.128Z,99.90
2019-04-07T04:04:46.593Z,99.90
2019-04-07T04:07:28.393Z,99.90
2019-04-07T04:09:58.097Z,99.90
2019-04-07T04:12:38.286Z,99.90
2019-04-07T04:15:15.110Z,99.90
2019-04-07T04:17:45.705Z,99.90
2019-04-07T04:20:16.124Z,99.90
2019-04-07T04:22:46.426Z,99.90
2019-04-07T04:25:16.962Z,99.90
2019-04-07T04:27:46.744Z,99.90
2019-04-07T04:30:16.917Z,99.90
2019-04-07T04:32:47.660Z,99.90
2019-04-07T04:35:17.303Z,99.90
2019-04-07T04:37:51.653Z,99.90
2019-04-07T04:40:18.846Z,99.90
2019-04-07T04:42:48.776Z,99.90
2019-04-07T04:45:18.298Z,99.90
2019-04-07T04:47:48.249Z,99.90
2019-04-07T04:50:17.868Z,99.90
2019-04-07T04:52:48.710Z,99.90
2019-04-07T04:55:18.926Z,99.90
2019-04-07T04:57:48.711Z,99.90
2019-04-07T05:00:18.757Z,99.90
2019-04-07T05:02:49.482Z,99.90
2019-04-07T05:05:19.863Z,99.90
2019-04-07T05:07:57.668Z,99.90
2019-04-07T05:10:21.094Z,99.90
2019-04-07T05:12:50.616Z,99.90
2019-04-07T05:15:20.132Z,99.90
2019-04-07T05:17:50.348Z,99.90
2019-04-07T05:20:20.643Z,99.90
2019-04-07T05:22:50.214Z,99.90
2019-04-07T05:25:39.348Z,99.90
2019-04-07T05:28:09.044Z,99.90
2019-04-07T05:30:39.169Z,99.90
2019-04-07T05:33:08.918Z,99.90
2019-04-07T05:35:38.466Z,99.90
2019-04-07T05:38:09.499Z,99.90
2019-04-07T05:40:41.036Z,99.90
2019-04-07T05:43:10.737Z,99.90
2019-04-07T05:45:40.941Z,99.90
2019-04-07T05:48:13.187Z,99.90
2019-04-07T05:50:43.872Z,99.90
2019-04-07T05:53:17.027Z,99.90
2019-04-07T05:55:52.102Z,99.90
2019-04-07T05:58:21.164Z,99.90
2019-04-07T06:00:51.043Z,99.90
2019-04-07T06:03:20.680Z,99.90
2019-04-07T06:05:51.234Z,99.90
2019-04-07T06:08:29.464Z,99.90
2019-04-07T06:10:56.933Z,99.90
2019-04-07T06:13:25.451Z,99.90
2019-04-07T06:15:54.980Z,99.90
2019-04-07T06:18:24.973Z,99.90
2019-04-07T06:20:54.597Z,99.90
2019-04-07T06:23:25.803Z,99.90
2019-04-07T06:25:57.316Z,99.90
2019-04-07T06:28:26.846Z,99.90
2019-04-07T06:30:59.444Z,99.90
2019-04-07T06:33:30.465Z,99.90
2019-04-07T06:36:00.448Z,99.90
2019-04-07T06:38:34.118Z,99.90
2019-04-07T06:41:02.973Z,99.90
2019-04-07T06:43:35.159Z,99.90
2019-04-07T06:46:27.632Z,99.90
2019-04-07T06:49:04.290Z,99.90
2019-04-07T06:51:52.822Z,99.90
2019-04-07T06:54:35.591Z,99.90
2019-04-07T06:57:28.244Z,99.90
2019-04-07T07:00:17.422Z,99.80
2019-04-07T07:03:06.121Z,99.80
2019-04-07T07:05:54.667Z,99.90
2019-04-07T07:08:45.797Z,99.70
2019-04-07T07:11:28.844Z,99.50
2019-04-07T07:14:35.467Z,99.30
2019-04-07T07:17:19.501Z,99.20
2019-04-07T07:20:08.001Z,98.90
2019-04-07T07:22:46.698Z,98.80
2019-04-07T07:25:15.761Z,98.60
2019-04-07T07:27:46.041Z,98.50
2019-04-07T07:30:19.052Z,98.50
2019-04-07T07:32:47.371Z,98.20
2019-04-07T07:35:22.332Z,98.10
2019-04-07T07:37:53.706Z,97.90
2019-04-07T07:40:23.095Z,98.20
2019-04-07T07:42:55.460Z,97.70
2019-04-07T07:45:24.179Z,97.90
2019-04-07T07:47:54.286Z,97.70
2019-04-07T07:50:25.725Z,97.80
2019-04-07T07:52:56.107Z,98.30
2019-04-07T07:55:26.458Z,97.70
2019-04-07T07:57:58.932Z,97.70
2019-04-07T08:00:27.454Z,97.90
2019-04-07T08:02:57.147Z,97.90
2019-04-07T08:05:29.822Z,97.80
2019-04-07T08:07:58.022Z,97.60
2019-04-07T08:10:27.653Z,97.40
2019-04-07T08:12:57.483Z,97.40
2019-04-07T08:15:31.224Z,97.40
2019-04-07T08:18:03.185Z,97.60
2019-04-07T08:20:31.862Z,97.60
2019-04-07T08:23:02.618Z,97.50
2019-04-07T08:25:32.689Z,97.10
2019-04-07T08:28:04.586Z,96.90
2019-04-07T08:30:34.308Z,96.90
2019-04-07T08:33:03.834Z,96.80
2019-04-07T08:35:36.805Z,96.20
2019-04-07T08:38:04.614Z,95.80
2019-04-07T08:40:36.509Z,96.10
2019-04-07T08:43:06.052Z,95.70
2019-04-07T08:45:36.022Z,95.50
2019-04-07T08:48:06.360Z,95.40
2019-04-07T08:50:36.332Z,95.20
2019-04-07T08:53:05.859Z,95.20
2019-04-07T08:55:35.577Z,95.30
2019-04-07T08:58:05.880Z,95.10
2019-04-07T09:00:38.708Z,94.90
2019-04-07T09:03:12.240Z,94.90
2019-04-07T09:05:39.905Z,95.00
2019-04-07T09:08:10.670Z,95.10
2019-04-07T09:11:14.643Z,95.20
2019-04-07T09:13:51.665Z,95.30
2019-04-07T09:16:47.553Z,95.50
2019-04-07T09:19:36.090Z,95.70
2019-04-07T09:22:29.833Z,95.80
2019-04-07T09:25:27.342Z,95.70
2019-04-07T09:28:22.186Z,95.30
2019-04-07T09:31:07.378Z,95.50
2019-04-07T09:33:48.153Z,95.20
2019-04-07T09:36:40.727Z,95.00
2019-04-07T09:39:34.536Z,94.80
2019-04-07T09:42:29.083Z,94.60
2019-04-07T09:45:18.448Z,94.80
2019-04-07T09:48:12.462Z,94.70
2019-04-07T09:51:05.074Z,94.80
2019-04-07T09:53:57.516Z,94.90
2019-04-07T09:57:07.281Z,94.80
2019-04-07T10:00:00.486Z,94.60
2019-04-07T10:02:49.136Z,94.80
2019-04-07T10:05:41.129Z,95.00
2019-04-07T10:08:41.882Z,95.00
2019-04-07T10:11:39.430Z,94.70
2019-04-07T10:14:21.992Z,94.70
2019-04-07T10:17:13.239Z,94.30
2019-04-07T10:20:05.172Z,94.70
2019-04-07T10:22:54.193Z,94.60
2019-04-07T10:25:36.465Z,94.80
2019-04-07T10:28:24.466Z,94.50
2019-04-07T10:31:20.728Z,94.40
2019-04-07T10:34:13.063Z,94.40
2019-04-07T10:37:03.690Z,93.90
2019-04-07T10:39:49.901Z,93.60
2019-04-07T10:42:34.639Z,93.30
2019-04-07T10:45:17.442Z,92.90
2019-04-07T10:48:05.808Z,92.40
2019-04-07T10:50:45.303Z,92.30
2019-04-07T10:53:33.143Z,91.60
2019-04-07T10:56:21.545Z,91.30
2019-04-07T10:59:09.328Z,90.90
2019-04-07T11:02:13.476Z,90.50
2019-04-07T11:05:01.862Z,90.40
2019-04-07T11:07:42.013Z,90.20
2019-04-07T11:10:46.398Z,90.10
2019-04-07T11:13:32.955Z,90.30
2019-04-07T11:16:49.937Z,90.50
2019-04-07T11:19:38.382Z,90.60
2019-04-07T11:22:34.627Z,90.70
2019-04-07T11:25:22.870Z,90.90
2019-04-07T11:28:14.101Z,90.10
2019-04-07T11:30:52.765Z,90.30
2019-04-07T11:33:44.809Z,89.00
2019-04-07T11:36:22.461Z,87.40
2019-04-07T11:39:13.635Z,86.10
2019-04-07T11:41:54.750Z,84.90
2019-04-07T11:44:42.266Z,83.70
2019-04-07T11:47:43.074Z,82.30
2019-04-07T11:50:37.215Z,81.70
2019-04-07T11:53:35.026Z,82.30
2019-04-07T11:56:26.507Z,82.70
2019-04-07T11:59:21.962Z,82.40
2019-04-07T12:02:07.563Z,82.40
2019-04-07T12:04:54.155Z,82.40
2019-04-07T12:07:36.801Z,82.30
2019-04-07T12:10:41.284Z,79.50
2019-04-07T12:13:38.649Z,77.20
2019-04-07T12:16:16.728Z,75.60
2019-04-07T12:19:08.348Z,74.20
2019-04-07T12:22:00.092Z,74.30
2019-04-07T12:24:41.257Z,71.60
2019-04-07T12:27:24.114Z,70.50
2019-04-07T12:30:03.298Z,67.80
2019-04-07T12:33:00.956Z,67.90
2019-04-07T12:35:55.146Z,67.10
2019-04-07T12:38:38.091Z,66.30
2019-04-07T12:41:20.464Z,64.80
2019-04-07T12:44:04.368Z,64.20
2019-04-07T12:46:59.184Z,63.40
2019-04-07T12:49:46.922Z,62.50
2019-04-07T12:52:28.095Z,61.90
2019-04-07T12:55:29.454Z,62.60
2019-04-07T12:58:30.166Z,61.40
2019-04-07T13:01:16.648Z,61.60
2019-04-07T13:04:00.205Z,61.40
2019-04-07T13:06:52.364Z,70.50
2019-04-07T13:09:43.888Z,61.80
2019-04-07T13:12:34.320Z,60.70
2019-04-07T13:15:25.870Z,59.90
2019-04-07T13:18:07.686Z,60.10
2019-04-07T13:20:59.029Z,59.30
2019-04-07T13:23:36.766Z,58.70
2019-04-07T13:26:27.298Z,57.70
2019-04-07T13:29:02.897Z,57.20
2019-04-07T13:31:38.452Z,56.90
2019-04-07T13:34:25.679Z,58.10
2019-04-07T13:37:04.710Z,57.40
2019-04-07T13:40:02.367Z,57.40
2019-04-07T13:42:47.611Z,56.90
2019-04-07T13:45:42.051Z,55.80
2019-04-07T13:48:49.667Z,56.10
2019-04-07T13:51:37.989Z,56.60
2019-04-07T13:54:27.764Z,57.30
2019-04-07T13:57:34.962Z,57.70
2019-04-07T14:00:28.983Z,54.90
2019-04-07T14:03:14.504Z,56.20
2019-04-07T14:06:11.342Z,55.30
2019-04-07T14:08:59.149Z,53.90
2019-04-07T14:11:58.804Z,54.00
2019-04-07T14:14:35.992Z,54.80
2019-04-07T14:17:33.496Z,53.80
2019-04-07T14:20:12.362Z,53.40
2019-04-07T14:23:04.251Z,54.60
2019-04-07T14:25:45.330Z,54.50
2019-04-07T14:28:26.658Z,54.10
2019-04-07T14:31:10.804Z,54.40
2019-04-07T14:34:05.532Z,54.50
2019-04-07T14:37:12.342Z,54.20
2019-04-07T14:39:54.183Z,54.10
2019-04-07T14:42:51.884Z,53.30
2019-04-07T14:45:45.324Z,53.70
2019-04-07T14:48:49.131Z,53.80
2019-04-07T14:51:53.536Z,53.50
2019-04-07T14:54:48.554Z,53.30
2019-04-07T14:57:49.187Z,52.70
2019-04-07T15:00:31.362Z,51.80
2019-04-07T15:03:00.975Z,51.10
2019-04-07T15:05:34.233Z,51.80
2019-04-07T15:08:32.904Z,51.10
2019-04-07T15:11:13.951Z,49.80
2019-04-07T15:13:44.623Z,48.70
2019-04-07T15:16:13.194Z,48.80
2019-04-07T15:18:42.734Z,48.60
2019-04-07T15:21:12.302Z,49.20
2019-04-07T15:23:44.805Z,50.20
2019-04-07T15:26:16.368Z,48.70
2019-04-07T15:28:44.648Z,47.30
2019-04-07T15:31:17.446Z,47.70
2019-04-07T15:33:45.581Z,46.50
2019-04-07T15:36:17.543Z,45.30
2019-04-07T15:38:46.341Z,45.80
2019-04-07T15:41:18.229Z,45.60
2019-04-07T15:43:47.118Z,45.30
2019-04-07T15:46:19.183Z,44.40
2019-04-07T15:48:48.389Z,44.10
2019-04-07T15:51:18.046Z,44.40
2019-04-07T15:53:51.504Z,45.10
2019-04-07T15:56:19.720Z,46.00
2019-04-07T15:58:50.859Z,47.00
2019-04-07T16:01:21.756Z,48.10
2019-04-07T16:03:54.409Z,49.00
2019-04-07T16:06:22.884Z,50.10
2019-04-07T16:08:53.205Z,51.90
2019-04-07T16:11:25.664Z,52.90
2019-04-07T16:13:54.111Z,54.20
2019-04-07T16:16:26.858Z,55.20
2019-04-07T16:18:54.842Z,55.90
2019-04-07T16:21:24.422Z,56.10
2019-04-07T16:23:54.381Z,57.20
2019-04-07T16:26:26.035Z,58.50
2019-04-07T16:28:56.255Z,58.70
2019-04-07T16:31:25.914Z,59.00
2019-04-07T16:33:56.166Z,59.60
2019-04-07T16:36:26.636Z,60.40
2019-04-07T16:38:56.531Z,61.60
2019-04-07T16:41:27.568Z,62.40
2019-04-07T16:43:57.112Z,61.70
2019-04-07T16:46:26.714Z,63.30
2019-04-07T16:48:56.298Z,62.70
2019-04-07T16:51:27.704Z,63.40
2019-04-07T16:53:57.338Z,65.80
2019-04-07T16:56:27.591Z,67.20
2019-04-07T16:58:57.166Z,68.80
2019-04-07T17:01:26.840Z,67.80
2019-04-07T17:03:56.533Z,67.40
2019-04-07T17:06:31.344Z,67.80
2019-04-07T17:08:57.364Z,70.40
2019-04-07T17:11:27.090Z,70.00
2019-04-07T17:13:56.961Z,72.00
2019-04-07T17:16:26.877Z,71.20
2019-04-07T17:18:57.380Z,73.30
2019-04-07T17:21:27.672Z,72.90
2019-04-07T17:23:58.117Z,74.80
2019-04-07T17:26:27.830Z,75.80
2019-04-07T17:28:58.591Z,77.30
2019-04-07T17:31:31.537Z,78.00
2019-04-07T17:34:00.947Z,79.60
2019-04-07T17:36:31.139Z,80.90
2019-04-07T17:39:15.274Z,81.60
2019-04-07T17:41:48.363Z,83.50
2019-04-07T17:44:51.346Z,84.10
2019-04-07T17:48:02.958Z,85.60
2019-04-07T17:51:08.620Z,85.50
2019-04-07T17:53:55.033Z,86.70
2019-04-07T17:56:38.174Z,87.60
2019-04-07T17:59:24.641Z,89.00
2019-04-07T18:02:18.958Z,89.70
2019-04-07T18:05:08.285Z,90.00
2019-04-07T18:07:54.445Z,90.10
2019-04-07T18:10:43.359Z,90.40
2019-04-07T18:13:46.066Z,90.70
2019-04-07T18:16:28.747Z,90.90
2019-04-07T18:19:17.246Z,90.80
2019-04-07T18:22:18.318Z,91.40
2019-04-07T18:25:05.237Z,91.60
2019-04-07T18:27:53.982Z,91.50
2019-04-07T18:30:42.910Z,91.50
2019-04-07T18:33:50.054Z,91.70
2019-04-07T18:36:36.008Z,92.40
2019-04-07T18:39:36.677Z,92.40
2019-04-07T18:42:28.029Z,92.90
2019-04-07T18:45:12.706Z,93.10
2019-04-07T18:48:05.366Z,93.20
2019-04-07T18:50:57.533Z,93.20
2019-04-07T18:54:05.507Z,93.20
2019-04-07T18:56:55.727Z,93.30
2019-04-07T18:59:44.438Z,93.70
2019-04-07T19:02:44.182Z,93.90
2019-04-07T19:05:20.086Z,94.40
2019-04-07T19:07:58.379Z,94.30
2019-04-07T19:11:10.669Z,94.30
2019-04-07T19:14:04.584Z,94.50
2019-04-07T19:16:50.701Z,94.50
2019-04-07T19:19:40.518Z,94.70
2019-04-07T19:22:38.688Z,94.90
2019-04-07T19:25:35.631Z,95.00
2019-04-07T19:28:23.100Z,95.10
2019-04-07T19:31:02.586Z,95.10
2019-04-07T19:33:51.203Z,95.10
2019-04-07T19:36:45.943Z,95.00
2019-04-07T19:39:34.922Z,95.00
2019-04-07T19:42:25.357Z,95.10
2019-04-07T19:45:22.851Z,95.10
2019-04-07T19:48:11.469Z,95.10
2019-04-07T19:51:06.817Z,95.70
2019-04-07T19:54:00.684Z,95.30
2019-04-07T19:56:52.782Z,95.20
2019-04-07T19:59:53.483Z,95.20
2019-04-07T20:02:36.378Z,95.00
2019-04-07T20:05:19.640Z,95.10
2019-04-07T20:08:03.061Z,95.20
2019-04-07T20:10:42.528Z,95.20
2019-04-07T20:13:44.525Z,95.40
2019-04-07T20:16:45.917Z,95.30
2019-04-07T20:19:22.647Z,95.50
2019-04-07T20:21:58.830Z,95.70
2019-04-07T20:24:48.714Z,95.80
2019-04-07T20:27:34.968Z,95.90
2019-04-07T20:30:17.584Z,95.90
2019-04-07T20:33:05.079Z,95.90
2019-04-07T20:35:56.607Z,95.90
2019-04-07T20:38:42.179Z,96.00
2019-04-07T20:41:17.670Z,96.10
2019-04-07T20:43:56.933Z,96.10
2019-04-07T20:46:44.841Z,95.90
2019-04-07T20:49:34.250Z,95.90
2019-04-07T20:52:24.056Z,95.90
2019-04-07T20:55:09.814Z,95.90
2019-04-07T20:57:54.070Z,95.90
2019-04-07T21:00:54.269Z,95.90
2019-04-07T21:03:38.712Z,95.80
2019-04-07T21:06:29.905Z,95.80
2019-04-07T21:09:12.319Z,95.90
2019-04-07T21:12:03.849Z,95.70
2019-04-07T21:14:51.703Z,95.70
2019-04-07T21:17:29.387Z,95.90
2019-04-07T21:20:15.898Z,95.90
2019-04-07T21:23:16.188Z,96.00
2019-04-07T21:26:03.642Z,95.90
2019-04-07T21:28:39.033Z,95.90
2019-04-07T21:31:17.842Z,96.00
2019-04-07T21:33:57.775Z,96.00
2019-04-07T21:36:49.350Z,96.40
2019-04-07T21:39:40.586Z,96.10
2019-04-07T21:42:34.846Z,96.40
2019-04-07T21:45:36.119Z,96.40
2019-04-07T21:48:16.410Z,96.60
2019-04-07T21:51:06.606Z,96.60
2019-04-07T21:53:48.612Z,96.70
2019-04-07T21:56:52.222Z,96.90
2019-04-07T21:59:50.024Z,97.10
2019-04-07T22:02:34.668Z,97.40
2019-04-07T22:05:24.473Z,97.40
2019-04-07T22:08:14.638Z,97.50
2019-04-07T22:10:39.411Z,97.70
2019-04-07T22:13:09.213Z,97.50
2019-04-07T22:15:45.767Z,97.60
2019-04-07T22:18:11.067Z,97.50
2019-04-07T22:20:40.856Z,97.40
2019-04-07T22:23:10.600Z,97.50
2019-04-07T22:25:51.561Z,97.80
2019-04-07T22:28:21.202Z,97.60
2019-04-07T22:30:52.067Z,97.70
2019-04-07T22:33:25.235Z,97.60
2019-04-07T22:35:53.312Z,97.50
2019-04-07T22:38:23.803Z,97.50
2019-04-07T22:40:54.281Z,97.60
2019-04-07T22:43:24.878Z,97.60
2019-04-07T22:46:04.126Z,97.70
2019-04-07T22:48:27.196Z,97.80
2019-04-07T22:50:57.014Z,98.20
2019-04-07T22:53:28.952Z,97.80
2019-04-07T22:55:57.767Z,97.90
2019-04-07T22:58:27.792Z,98.00
2019-04-07T23:00:58.508Z,98.10
2019-04-07T23:03:29.058Z,98.10
2019-04-07T23:05:58.976Z,98.10
2019-04-07T23:08:28.597Z,98.30
2019-04-07T23:10:58.105Z,98.30
2019-04-07T23:13:28.010Z,98.30
2019-04-07T23:16:10.015Z,98.40
2019-04-07T23:18:29.632Z,98.40
2019-04-07T23:20:59.929Z,98.50
2019-04-07T23:23:30.854Z,98.80
2019-04-07T23:26:00.630Z,98.90
2019-04-07T23:28:30.684Z,98.90
2019-04-07T23:31:00.395Z,98.90
2019-04-07T23:33:29.950Z,98.80
2019-04-07T23:35:59.780Z,98.90
2019-04-07T23:38:30.440Z,99.20
2019-04-07T23:41:01.124Z,99.00
2019-04-07T23:43:30.767Z,99.00
2019-04-07T23:46:00.308Z,99.10
2019-04-07T23:48:30.622Z,99.20
2019-04-07T23:51:00.338Z,99.00
2019-04-07T23:54:07.425Z,99.20
2019-04-07T23:56:39.188Z,99.10
2019-04-07T23:59:10.305Z,99.40
